Massachusetts Logo

Sandwich, MA Single Family Real Estate Listings

326 Total Real Estate Listings * Click on table heading to sort
Date Posted Property Type Style Address Price Living Area Lot Size Price/Sq Ft.
2018-06-18 Single Family Cape 6 Richards Way Sandwich, MA 02537 $399,900 1,706 sq. ft. 10,454 sq. ft. $234
2018-06-18 Single Family Cape 8 Sheldon Lane Sandwich, MA 02644 $699,900 2,040 sq. ft. 28,750 sq. ft. $343
2018-06-18 Single Family Cape 3 Vista Lane Sandwich, MA 02537 $649,900 2,540 sq. ft. 236,966 sq. ft. $256
2018-06-16 Single Family Cape 16 Jeannes Way Sandwich, MA 02644 $289,900 1,418 sq. ft. 20,038 sq. ft. $204
2018-06-15 Single Family Contemporary 6 Crescent Hill Road Sandwich, MA 02537 $799,000 3,601 sq. ft. 0 sq. ft. $222
2018-06-15 Single Family Contemporary 6 Crescent Hill Road Sandwich, MA 02537 $799,000 3,600 sq. ft. 44,867 sq. ft. $222
2018-06-15 Single Family Cape 16 Jeannes Way Sandwich, MA 02644 $289,900 1,418 sq. ft. 20,038 sq. ft. $204
2018-06-15 Single Family Ranch 1 Dale Terrace Extension Sandwich, MA 02563 $359,900 1,561 sq. ft. 0 sq. ft. $231
2018-06-15 Single Family Farmhouse 99 Main St Sandwich, MA 02563 $499,000 2,629 sq. ft. 29,185 sq. ft. $190
2018-06-14 Single Family Farm House 99 Main Street Sandwich, MA 02563 $499,000 2,629 sq. ft. 29,185 sq. ft. $190
2018-06-14 Single Family Cape 27 J Braden Thompson Rd Sandwich, MA 02644 $459,000 2,260 sq. ft. 15,246 sq. ft. $203
2018-06-14 Single Family Cape 27 J Braden Thompson Road Sandwich, MA 02644 $459,000 2,260 sq. ft. 15,246 sq. ft. $203
2018-06-13 Single Family Cape 670 Route 6a Sandwich, MA 02563 $465,000 2,860 sq. ft. 64,033 sq. ft. $163
2018-06-13 Single Family Cape 670 Route 6a Sandwich, MA 02563 $465,000 2,860 sq. ft. 64,033 sq. ft. $163
2018-06-13 Single Family Gambrel /Dutch 3 Arthur Ct Sandwich, MA 02644 $320,000 1,278 sq. ft. 20,473 sq. ft. $250
2018-06-13 Single Family Ranch 19 Jones Ln Sandwich, MA 02537 $429,000 1,344 sq. ft. 27,007 sq. ft. $319
2018-06-12 Single Family Cape 16 Pierre Vernier Drive Sandwich, MA 02563 $399,000 1,568 sq. ft. 25,700 sq. ft. $254
2018-06-12 Single Family Ranch; Shingle 4 W Crossfield Rd Sandwich, MA 02644 $329,900 1,548 sq. ft. 20,038 sq. ft. $213
2018-06-12 Single Family Colonial 60 Marshview Cir Sandwich, MA 02537 $749,900 3,200 sq. ft. 75,794 sq. ft. $234
2018-06-12 Single Family Colonial 69 Pimlico Pond Rd Sandwich, MA 02644 $369,900 1,152 sq. ft. 5,663 sq. ft. $321
2018-06-12 Single Family Ranch 4 Emerald Way Sandwich, MA 02644 $189,000 1,040 sq. ft. 19,602 sq. ft. $182
2018-06-12 Single Family Ranch 1 Tyler Drive Sandwich, MA 02563 $305,000 929 sq. ft. 14,810 sq. ft. $328
2018-06-11 Single Family Colonial 11 Elijahs Hollow Road Sandwich, MA 02563 $489,000 2,288 sq. ft. 19,602 sq. ft. $214
2018-06-11 Single Family Ranch 1 Tyler Drive Sandwich, MA 02563 $305,000 929 sq. ft. 14,810 sq. ft. $328
2018-06-11 Single Family Colonial 17 Pine Street Sandwich, MA 02563 $789,000 3,546 sq. ft. 0 sq. ft. $222
2018-06-11 Single Family Saltbox 4 Meadow Ln Sandwich, MA 02563 $472,500 2,284 sq. ft. 23,087 sq. ft. $207
2018-06-11 Single Family Saltbox 4 Meadow Lane Sandwich, MA 02563 $472,500 2,284 sq. ft. 23,087 sq. ft. $207
2018-06-10 Single Family Colonial; Antique 100 Tupper Rd Sandwich, MA 02563 $639,900 2,872 sq. ft. 18,295 sq. ft. $223
2018-06-09 Single Family Colonial 3 Telegraph Hill Rd Sandwich, MA 02563 $559,900 2,080 sq. ft. 54,014 sq. ft. $269
2018-06-09 Single Family Ranch 19 Jones Lane Sandwich, MA 02537 $429,000 1,344 sq. ft. 27,007 sq. ft. $319
2018-06-09 Single Family Colonial 69 Pimlico Pond Road Sandwich, MA 02644 $369,900 1,152 sq. ft. 5,663 sq. ft. $321
2018-06-08 Single Family Colonial 10 Annies Ln Sandwich, MA 02644 $449,900 2,256 sq. ft. 16,553 sq. ft. $199
2018-06-08 Single Family Contemporary 77 Freeman Avenue Sandwich, MA 02563 $895,000 2,844 sq. ft. 6,098 sq. ft. $315
2018-06-08 Single Family Ranch 91 Knott Avenue Sandwich, MA 02563 $399,000 895 sq. ft. 4,792 sq. ft. $446
2018-06-08 Single Family Ranch 6 Muskegat Sandwich, MA 02563 $324,900 912 sq. ft. 0 sq. ft. $356
2018-06-08 Single Family Cape 200 Main St Sandwich, MA 02563 $489,900 2,871 sq. ft. 23,958 sq. ft. $171
2018-06-08 Single Family Cape 115 Kiahs Way Sandwich, MA 02537 $339,900 1,372 sq. ft. 74,052 sq. ft. $248
2018-06-08 Single Family Cottage 83 Salt Marsh Sandwich, MA 02537 $575,000 875 sq. ft. 1,742 sq. ft. $657
2018-06-08 Single Family Colonial 40 Torrey Rd Sandwich, MA 02537 $1,595,000 3,832 sq. ft. 59,677 sq. ft. $416
2018-06-08 Single Family Cottage 83 Salt Marsh Road Sandwich, MA 02537 $575,000 875 sq. ft. 17,424 sq. ft. $657
2018-06-08 Single Family Colonial 10 Annies Lane Sandwich, MA 02644 $449,900 2,256 sq. ft. 16,553 sq. ft. $199
2018-06-08 Single Family Cape 200 Old Main Street Sandwich, MA 02563 $489,900 2,871 sq. ft. 23,958 sq. ft. $171
2018-06-08 Single Family Ranch 6 Muskegat Circle Sandwich, MA 02563 $324,900 912 sq. ft. 16,553 sq. ft. $356
2018-06-08 Single Family Cape 115 Kiahs Way Sandwich, MA 02537 $339,900 1,372 sq. ft. 74,052 sq. ft. $248
2018-06-06 Single Family Garrison 39 Arnold Rd Sandwich, MA 02644 $437,900 1,768 sq. ft. 0 sq. ft. $248
2018-06-06 Single Family Cape 25 Water Sandwich, MA 02563 $379,900 2,500 sq. ft. 54,886 sq. ft. $152
2018-06-06 Single Family Garrison 23 Village Drive Sandwich, MA 02537 $489,000 2,520 sq. ft. 51,401 sq. ft. $194
2018-06-06 Single Family Cape 5 Holiday Lane Sandwich, MA 02563 $345,000 1,587 sq. ft. 14,810 sq. ft. $217
2018-06-06 Single Family Colonial 402 Quaker Meeting House Rd Sandwich, MA 02537 $1,299,000 5,288 sq. ft. 94,525 sq. ft. $246
2018-06-06 Single Family Colonial 402 Quaker Meeting House Road Sandwich, MA 02537 $1,299,000 5,288 sq. ft. 94,525 sq. ft. $246
2018-06-06 Single Family Ranch 1 James Street Sandwich, MA 02563 $345,000 1,008 sq. ft. 15,682 sq. ft. $342
2018-06-06 Single Family Ranch 1 Dale Terrace Extension Sandwich, MA 02563 $359,900 1,561 sq. ft. 33,541 sq. ft. $231
2018-06-06 Single Family Ranch 1 James St Sandwich, MA 02563 $345,000 1,008 sq. ft. 15,682 sq. ft. $342
2018-06-05 Single Family Colonial 4 Quiet St Sandwich, MA 02537 $875,000 4,867 sq. ft. 36,155 sq. ft. $180
2018-06-05 Single Family Garrison 39 Arnold Road Sandwich, MA 02644 $437,900 1,768 sq. ft. 47,916 sq. ft. $248
2018-06-05 Single Family 12 Ocean Road Sandwich, MA 02537 $445,000 1,190 sq. ft. 10,454 sq. ft. $374
2018-06-05 Single Family 12 Ocean Road Sandwich, MA 02537 $445,000 1,190 sq. ft. 10,454 sq. ft. $374
2018-06-05 Single Family Cape 23 Lakewood Drive Sandwich, MA 02537 $489,900 1,854 sq. ft. 30,056 sq. ft. $264
2018-06-05 Single Family Cape 5 Holiday Lane Sandwich, MA 02563 $345,000 1,587 sq. ft. 14,810 sq. ft. $217
2018-06-04 Single Family Cape; Contemporary 417 Route 6a Sandwich, MA 02537 $769,000 3,518 sq. ft. 42,689 sq. ft. $219
2018-06-04 Single Family Cape 417 Route 6a Sandwich, MA 02537 $769,000 3,518 sq. ft. 42,689 sq. ft. $219
2018-06-04 Single Family Saltbox 45 Snake Pond Road Sandwich, MA 02644 $274,900 1,140 sq. ft. 0 sq. ft. $241
2018-06-04 Single Family Ranch 94 Wing Blvd W Sandwich, MA 02537 $499,000 972 sq. ft. 11,326 sq. ft. $513
2018-06-04 Single Family Ranch 94 Wing Boulevard Sandwich, MA 02563 $499,000 972 sq. ft. 11,326 sq. ft. $513
2018-06-03 Single Family Cape 68 Salt Marsh Rd Sandwich, MA 02537 $899,000 1,992 sq. ft. 22,216 sq. ft. $451
2018-06-02 Single Family Colonial 100 Tupper Road Sandwich, MA 02563 $639,900 2,872 sq. ft. 18,295 sq. ft. $223
2018-06-02 Single Family Colonial 2 Maple Place Sandwich, MA 02537 $2,495,000 3,958 sq. ft. 91,476 sq. ft. $630
2018-06-02 Single Family Cape 2 Maple Place Sandwich, MA 02537 $2,495,000 3,958 sq. ft. 91,476 sq. ft. $630
2018-06-01 Single Family Cottage 54 Salt Marsh Rd Sandwich, MA 02537 $749,900 640 sq. ft. 19,166 sq. ft. $1,172
2018-05-31 Single Family Ranch 91 Knott Ave Sandwich, MA 02563 $399,900 895 sq. ft. 4,792 sq. ft. $447
2018-05-31 Single Family Farm House 18 Dewey Avenue Sandwich, MA 02563 $799,900 3,330 sq. ft. 43,124 sq. ft. $240
2018-05-30 Single Family Farmhouse 18 Dewey Ave Sandwich, MA 02563 $799,900 3,228 sq. ft. 43,124 sq. ft. $248
2018-05-29 Single Family Ranch 49 Woodridge Rd Sandwich, MA 02537 $298,900 896 sq. ft. 14,810 sq. ft. $334
2018-05-29 Single Family Ranch 49 Woodridge Road Sandwich, MA 02563 $298,900 896 sq. ft. 14,810 sq. ft. $334
2018-05-28 Single Family Cottage 54 Salt Marsh Road Sandwich, MA 02537 $749,900 640 sq. ft. 19,166 sq. ft. $1,172
2018-05-28 Single Family Cape 60 Old County Road Sandwich, MA 02537 $549,000 3,714 sq. ft. 128,502 sq. ft. $148
2018-05-27 Single Family Colonial 6 Norse Pines Drive Sandwich, MA 02537 $1,075,000 4,996 sq. ft. 36,155 sq. ft. $215
2018-05-25 Single Family Ranch 72 Mill Road Sandwich, MA 02537 $349,000 1,280 sq. ft. 24,394 sq. ft. $273
2018-05-25 Single Family Colonial 31 Quaker Village Lane Sandwich, MA 02537 $685,000 4,454 sq. ft. 71,438 sq. ft. $154
2018-05-25 Single Family Ranch 72 Mill Rd Sandwich, MA 02537 $349,000 1,280 sq. ft. 24,394 sq. ft. $273
2018-05-25 Single Family Saltbox 29 Tupper Avenue Sandwich, MA 02563 $459,900 1,568 sq. ft. 4,792 sq. ft. $293
2018-05-25 Single Family Cape 15 Burg Avenue Sandwich, MA 02563 $469,500 1,547 sq. ft. 8,276 sq. ft. $303
2018-05-25 Single Family Contemporary 77 Freeman Ave Sandwich, MA 02563 $895,000 2,844 sq. ft. 6,098 sq. ft. $315
2018-05-25 Single Family Colonial 31 Quaker Village Lane Sandwich, MA 02537 $685,000 4,454 sq. ft. 71,438 sq. ft. $154
2018-05-25 Single Family Colonial 6 Norse Pines Drive Sandwich, MA 02537 $1,075,000 4,996 sq. ft. 36,155 sq. ft. $215
2018-05-24 Single Family Cape 189 Old County Road Sandwich, MA 02537 $399,419 1,764 sq. ft. 12,197 sq. ft. $226
2018-05-24 Single Family Cape 11 Christopher Hollow Rd Sandwich, MA 02563 $429,500 1,604 sq. ft. 17,424 sq. ft. $268
2018-05-24 Single Family Cape 11 Christopher Hollow Road Sandwich, MA 02563 $429,500 1,604 sq. ft. 17,424 sq. ft. $268
2018-05-24 Single Family Colonial 2 Partridge Path Sandwich, MA 02537 $479,000 2,464 sq. ft. 23,522 sq. ft. $194
2018-05-23 Single Family Colonial 2 Partridge Path Sandwich, MA 02537 $479,000 2,464 sq. ft. 23,522 sq. ft. $194
2018-05-23 Single Family Gambrel 3 Kensington Drive Sandwich, MA 02563 $334,900 1,694 sq. ft. 21,780 sq. ft. $198
2018-05-23 Single Family Cape 189 Old County Road Sandwich, MA 02537 $399,419 1,764 sq. ft. 12,197 sq. ft. $226
2018-05-22 Single Family Garrison 14 Grand Oak Road Sandwich, MA 02644 $479,900 2,234 sq. ft. 28,314 sq. ft. $215
2018-05-22 Single Family Cape 1 Stonefield Drive Sandwich, MA 02537 $675,000 2,406 sq. ft. 40,075 sq. ft. $281
2018-05-22 Single Family Colonial 47 Old Mill Sandwich, MA 02537 $799,900 3,054 sq. ft. 294,901 sq. ft. $262
2018-05-22 Single Family Antique 108 Main St Sandwich, MA 02563 $479,900 2,957 sq. ft. 33,106 sq. ft. $162
2018-05-21 Single Family Ranch 14 Lakewood Dr Sandwich, MA 02537 $285,000 1,271 sq. ft. 20,038 sq. ft. $224
2018-05-21 Single Family Ranch 14 Lakewood Drive Sandwich, MA 02537 $285,000 1,271 sq. ft. 20,038 sq. ft. $224
2018-05-20 Single Family Colonial 3 Arthur Court Sandwich, MA 02644 $320,000 1,278 sq. ft. 20,473 sq. ft. $250
2018-05-19 Single Family Contemporary 5 Reflection Dr Sandwich, MA 02563 $945,000 4,094 sq. ft. 40,075 sq. ft. $231
2018-05-19 Single Family Cape 20 Hannah Way Sandwich, MA 02537 $1,399,000 5,000 sq. ft. 95,832 sq. ft. $280
2018-05-19 Single Family Contemporary 5 Reflection Drive Sandwich, MA 02563 $945,000 4,094 sq. ft. 40,075 sq. ft. $231
2018-05-19 Single Family Federal 108 Main Street Sandwich, MA 02563 $479,900 2,957 sq. ft. 33,106 sq. ft. $162
2018-05-18 Single Family Colonial 12 Faunce Mountain Rd Sandwich, MA 02563 $489,000 2,810 sq. ft. 19,602 sq. ft. $174
2018-05-18 Single Family Cape 26 Deep Wood Dr Sandwich, MA 02644 $539,000 2,648 sq. ft. 42,253 sq. ft. $204
2018-05-18 Single Family Colonial 391 Quaker Meeting House Road Sandwich, MA 02537 $599,900 2,767 sq. ft. 60,113 sq. ft. $217
2018-05-18 Single Family Cape 26 Deep Wood Drive Sandwich, MA 02644 $539,000 2,648 sq. ft. 42,253 sq. ft. $204
2018-05-18 Single Family Cape 7 Abigails Way Sandwich, MA 02563 $450,000 2,138 sq. ft. 19,602 sq. ft. $210
2018-05-18 Single Family Colonial 1 Green Acres Lane Sandwich, MA 02644 $415,000 2,028 sq. ft. 13,068 sq. ft. $205
2018-05-17 Single Family Colonial 42 Village Dr Sandwich, MA 02537 $635,000 3,528 sq. ft. 43,996 sq. ft. $180
2018-05-17 Single Family Colonial 42 Village Drive Sandwich, MA 02537 $635,000 3,528 sq. ft. 43,996 sq. ft. $180
2018-05-17 Single Family Cape 3 Summer Street Sandwich, MA 02563 $474,995 1,579 sq. ft. 12,197 sq. ft. $301
2018-05-17 Single Family Colonial 12 Faunce Mountain Road Sandwich, MA 02563 $489,000 2,810 sq. ft. 19,602 sq. ft. $174
2018-05-17 Single Family Ranch 41 Deer Hollow Road Sandwich, MA 02644 $269,000 1,058 sq. ft. 14,810 sq. ft. $254
2018-05-17 Single Family Colonial 47 Old Mill Road Sandwich, MA 02537 $799,900 3,054 sq. ft. 294,901 sq. ft. $262
2018-05-16 Single Family Contemporary 3 Shaw Road Sandwich, MA 02563 $629,000 2,702 sq. ft. 24,829 sq. ft. $233
2018-05-16 Single Family Cape 3 Summer Street Sandwich, MA 02563 $474,995 1,579 sq. ft. 12,197 sq. ft. $301
2018-05-16 Single Family Cape 30 Greenhouse Road Sandwich, MA 02644 $425,000 1,512 sq. ft. 29,185 sq. ft. $281
2018-05-15 Single Family Contemporary 34 Arnold Road Sandwich, MA 02644 $679,900 2,548 sq. ft. 52,708 sq. ft. $267
2018-05-15 Single Family Cape 281 Phillips Road Sandwich, MA 02563 $1,199,000 2,000 sq. ft. 19,166 sq. ft. $600
2018-05-15 Single Family Contemporary 34 Arnold Rd Sandwich, MA 02644 $679,900 2,548 sq. ft. 52,708 sq. ft. $267
2018-05-14 Single Family Cape 281 Phillips Rd Sandwich, MA 02563 $1,199,000 2,000 sq. ft. 19,166 sq. ft. $600
2018-05-14 Single Family Cape 87 Farmersville Rd Sandwich, MA 02563 $479,900 2,130 sq. ft. 87,120 sq. ft. $225
2018-05-14 Single Family Cape 30 Shawme Rd Sandwich, MA 02563 $424,900 3,000 sq. ft. 20,909 sq. ft. $142
2018-05-14 Single Family Cape 30 Shawme Road Sandwich, MA 02563 $424,900 3,000 sq. ft. 20,909 sq. ft. $142
2018-05-12 Single Family Cape 8 Laurel Circle Sandwich, MA 02644 $329,000 1,638 sq. ft. 20,038 sq. ft. $201
2018-05-12 Single Family Cape 15 Pin Oak Drive Sandwich, MA 02537 $344,900 1,848 sq. ft. 30,492 sq. ft. $187
2018-05-12 Single Family Cape 81 Holly Ridge Drive Sandwich, MA 02563 $415,000 2,262 sq. ft. 20,909 sq. ft. $183
2018-05-11 Single Family Cape 20 Crowell Rd Sandwich, MA 02563 $329,900 1,428 sq. ft. 23,522 sq. ft. $231
2018-05-11 Single Family Cape 20 Crowell Road Sandwich, MA 02563 $329,900 1,428 sq. ft. 23,522 sq. ft. $231
2018-05-11 Single Family Ranch 16 Settlers Path Sandwich, MA 02563 $325,000 1,440 sq. ft. 24,394 sq. ft. $226
2018-05-11 Single Family Cape 25 Water Street Sandwich, MA 02563 $379,900 1,905 sq. ft. 54,886 sq. ft. $199
2018-05-11 Single Family Cape 87 Farmersville Road Sandwich, MA 02563 $479,900 2,130 sq. ft. 87,120 sq. ft. $225
2018-05-10 Single Family Ranch 26 Hunter's Trail Sandwich, MA 02563 $334,900 1,152 sq. ft. 10,019 sq. ft. $291
2018-05-10 Single Family Cape 34 Gully Lane Sandwich, MA 02537 $599,000 3,196 sq. ft. 60,113 sq. ft. $187
2018-05-10 Single Family Cape 4 Golf Links Circle Sandwich, MA 02563 $408,000 1,897 sq. ft. 26,572 sq. ft. $215
2018-05-09 Single Family Colonial 13 Quail Hollow Circle Sandwich, MA 02563 $475,000 2,168 sq. ft. 29,185 sq. ft. $219
2018-05-09 Single Family 376 Route 6a Sandwich, MA 02537 $122,000 238 sq. ft. $513
2018-05-09 Single Family Contemporary 6 Arrowhead Circle Sandwich, MA 02537 $775,000 2,902 sq. ft. 31,799 sq. ft. $267
2018-05-08 Single Family Cape 14 Liberty Street Sandwich, MA 02563 $539,000 1,862 sq. ft. 15,246 sq. ft. $289
2018-05-07 Single Family Antique 14 Liberty St Sandwich, MA 02563 $539,000 1,862 sq. ft. 15,246 sq. ft. $289
2018-05-06 Single Family Gambrel /Dutch 3 Kensington Dr Sandwich, MA 02563 $334,900 1,694 sq. ft. 21,780 sq. ft. $198
2018-05-06 Single Family Cottage 50 East Road Sandwich, MA 02644 $225,900 632 sq. ft. 15,246 sq. ft. $357
2018-05-05 Single Family Ranch 4 Crossfield Road Sandwich, MA 02563 $329,900 1,548 sq. ft. 20,038 sq. ft. $213
2018-05-05 Single Family Saltbox 15 Captain Greaves Road Sandwich, MA 02537 $475,000 1,176 sq. ft. 11,326 sq. ft. $404
2018-05-04 Single Family Cape 45 Grand Oak Road Sandwich, MA 02644 $369,000 1,729 sq. ft. 25,700 sq. ft. $213
2018-05-03 Single Family Farm House 1 Grand Oak Road Sandwich, MA 02644 $349,000 1,810 sq. ft. 27,443 sq. ft. $193
2018-05-03 Single Family Colonial 40 Chase Road Sandwich, MA 02537 $529,000 3,488 sq. ft. 40,946 sq. ft. $152
2018-05-02 Single Family Colonial 40 Chase Rd Sandwich, MA 02537 $529,000 3,488 sq. ft. 40,946 sq. ft. $152
2018-05-02 Single Family Contemporary 3 Firethorn Sandwich, MA 02563 $824,900 3,514 sq. ft. 16,988 sq. ft. $235
2018-05-02 Single Family Contemporary 3 Firethorn Lane Sandwich, MA 02563 $824,900 3,514 sq. ft. 16,988 sq. ft. $235
2018-05-01 Single Family Ranch 8 Charles St Sandwich, MA 02563 $288,800 732 sq. ft. 12,632 sq. ft. $395
2018-05-01 Single Family Contemporary 3 Dillingham Ave Sandwich, MA 02563 $690,117 2,870 sq. ft. 4,792 sq. ft. $240
2018-05-01 Single Family Cape 8 Quaker Village Lane Sandwich, MA 02537 $749,000 3,002 sq. ft. 60,113 sq. ft. $250
2018-05-01 Single Family Ranch 7 Sand Castle Drive Sandwich, MA 02563 $479,000 528 sq. ft. 2,178 sq. ft. $907
2018-05-01 Single Family Contemporary; Cottage 22 Longhill Dr Sandwich, MA 02537 $699,000 1,550 sq. ft. 47,480 sq. ft. $451
2018-05-01 Single Family Cottage 22 Longhill Drive Sandwich, MA 02537 $699,000 1,550 sq. ft. 47,480 sq. ft. $451
2018-04-28 Single Family Cape 10 Queens Way Sandwich, MA 02563 $410,000 2,172 sq. ft. 21,780 sq. ft. $189
2018-04-28 Single Family Gambrel 16 Oxford Road Sandwich, MA 02537 $415,000 1,705 sq. ft. 24,394 sq. ft. $243
2018-04-28 Single Family Contemporary 3 Dillingham Avenue Sandwich, MA 02563 $690,117 2,870 sq. ft. 4,792 sq. ft. $240
2018-04-28 Single Family Ranch 8 Lentell Street Sandwich, MA 02563 $299,999 1,008 sq. ft. 14,810 sq. ft. $298
2018-04-27 Single Family Colonial 39 Grand Oak Road Sandwich, MA 02644 $475,531 2,028 sq. ft. 43,996 sq. ft. $234
2018-04-27 Single Family Ranch 11 Wilson Rd Sandwich, MA 02563 $299,900 1,278 sq. ft. 20,473 sq. ft. $235
2018-04-27 Single Family Ranch 11 Wilson Road Sandwich, MA 02563 $299,900 1,278 sq. ft. 20,473 sq. ft. $235
2018-04-27 Single Family Colonial 18 Morse Road Sandwich, MA 02563 $599,900 3,158 sq. ft. 50,094 sq. ft. $190
2018-04-27 Single Family Contemporary 6 Samba Circle Sandwich, MA 02563 $719,000 2,904 sq. ft. 41,382 sq. ft. $248
2018-04-26 Single Family Contemporary 349 Phillips Rd Sandwich, MA 02563 $2,400,000 3,879 sq. ft. 28,314 sq. ft. $619
2018-04-26 Single Family Cottage 34 Carman Avenue Sandwich, MA 02563 $459,900 1,459 sq. ft. 4,792 sq. ft. $315
2018-04-26 Single Family Raised Ranch 215 Phillips Rd Sandwich, MA 02563 $929,900 2,024 sq. ft. 16,117 sq. ft. $459
2018-04-25 Single Family Cape 29 Christopher Hollow Road Sandwich, MA 02563 $509,900 2,540 sq. ft. 19,602 sq. ft. $201
2018-04-25 Single Family Cape 29 Christopher Hollow Rd Sandwich, MA 02563 $509,900 2,540 sq. ft. 19,602 sq. ft. $201
2018-04-25 Single Family Colonial; Contemporary 30 Meadow Spring Sandwich, MA 02537 $609,000 2,793 sq. ft. 31,799 sq. ft. $218
2018-04-25 Single Family Gambrel /Dutch 34 Carman Ave Sandwich, MA 02563 $459,900 1,459 sq. ft. 4,792 sq. ft. $315
2018-04-25 Single Family Cape 36 Moody Drive Sandwich, MA 02563 $299,000 2,673 sq. ft. 37,462 sq. ft. $112
2018-04-24 Single Family Cape 387 Lake Shore Drive Sandwich, MA 02563 $359,000 1,552 sq. ft. 20,473 sq. ft. $231
2018-04-23 Single Family Contemporary 349 Phillips Road Sandwich, MA 02563 $2,400,000 3,879 sq. ft. 69,696 sq. ft. $619
2018-04-21 Single Family Cape; Shingle 13 Bayview Rd Sandwich, MA 02537 $549,900 2,212 sq. ft. 40,511 sq. ft. $249
2018-04-20 Single Family Ranch 44 Stowe Road Sandwich, MA 02563 $879,000 4,708 sq. ft. 22,651 sq. ft. $187
2018-04-20 Single Family Ranch 44 Stowe Road Sandwich, MA 02563 $879,000 4,708 sq. ft. 22,651 sq. ft. $187
2018-04-20 Single Family Cape 30 Church Street Sandwich, MA 02563 $349,000 1,260 sq. ft. 4,792 sq. ft. $277
2018-04-20 Single Family Colonial 4 Quiet Street Sandwich, MA 02537 $875,000 4,867 sq. ft. 36,155 sq. ft. $180
2018-04-20 Single Family Colonial 8 Bourne Hay Road Sandwich, MA 02563 $417,900 2,056 sq. ft. 20,473 sq. ft. $203
2018-04-19 Single Family Cape 27 Meadow Spring Drive Sandwich, MA 02537 $579,000 2,154 sq. ft. 32,670 sq. ft. $269
2018-04-19 Single Family Colonial 9 Beachway Road Sandwich, MA 02537 $820,000 2,617 sq. ft. 10,454 sq. ft. $313
2018-04-18 Single Family Colonial 9 Beachway Road Sandwich, MA 02537 $820,000 2,617 sq. ft. 10,454 sq. ft. $313
2018-04-18 Single Family Ranch 23 Pickerel Way Sandwich, MA 02644 $320,000 1,056 sq. ft. 20,473 sq. ft. $303
2018-04-18 Single Family Colonial 30 Meadow Spring Drive Sandwich, MA 02537 $609,000 2,793 sq. ft. 31,799 sq. ft. $218
2018-04-18 Single Family Colonial 15 Chandler Road Sandwich, MA 02537 $595,000 2,722 sq. ft. 40,511 sq. ft. $219
2018-04-18 Single Family Colonial 15 Chandler Rd Sandwich, MA 02537 $595,000 2,722 sq. ft. 40,511 sq. ft. $219
2018-04-18 Single Family Cape 30 Church St Sandwich, MA 02563 $349,000 1,260 sq. ft. 4,792 sq. ft. $277
2018-04-18 Single Family Colonial 41 Torrey Road Sandwich, MA 02563 $3,449,000 8,244 sq. ft. 88,862 sq. ft. $418
2018-04-18 Single Family Colonial 40 Torrey Road Sandwich, MA 02537 $1,595,000 3,832 sq. ft. 59,677 sq. ft. $416
2018-04-18 Single Family Contemporary 103 Salt Marsh Road Sandwich, MA 02563 $970,000 1,536 sq. ft. 19,166 sq. ft. $632
2018-04-18 Single Family Contemporary 36 Open Space Drive Sandwich, MA 02563 $1,289,000 5,124 sq. ft. 61,420 sq. ft. $252
2018-04-18 Single Family Colonial 129 North Shore Boulevard Sandwich, MA 02537 $925,000 1,632 sq. ft. 15,246 sq. ft. $567
2018-04-18 Single Family Cottage 215 Phillips Road Sandwich, MA 02563 $929,900 2,024 sq. ft. 16,117 sq. ft. $459
2018-04-18 Single Family Cottage 217 Phillips Road Sandwich, MA 02563 $949,000 1,300 sq. ft. 35,284 sq. ft. $730
2018-04-18 Single Family Antique 22 Grove Street Sandwich, MA 02563 $875,000 3,614 sq. ft. 24,394 sq. ft. $242
2018-04-18 Single Family Contemporary 4 Open Trail Road Sandwich, MA 02563 $815,000 3,538 sq. ft. 20,473 sq. ft. $230
2018-04-18 Single Family Contemporary 7 Sweet Fern Lane Sandwich, MA 02563 $849,900 4,600 sq. ft. 22,216 sq. ft. $185
2018-04-18 Single Family Colonial 19 Grove Street Sandwich, MA 02563 $749,000 1,392 sq. ft. 6,098 sq. ft. $538
2018-04-18 Single Family Colonial 6 Reflection Drive Sandwich, MA 02563 $789,000 3,047 sq. ft. 19,602 sq. ft. $259
2018-04-18 Single Family Saltbox 28 Gully Lane Sandwich, MA 02537 $759,000 2,279 sq. ft. 320,166 sq. ft. $333
2018-04-18 Single Family Ranch 253 Phillips Road Sandwich, MA 02563 $699,000 720 sq. ft. 18,295 sq. ft. $971
2018-04-18 Single Family Contemporary 4 Firethorn Lane Sandwich, MA 02563 $715,000 3,436 sq. ft. 16,988 sq. ft. $208
2018-04-18 Single Family Cape 233 Old County Road Sandwich, MA 02537 $595,500 3,064 sq. ft. 65,776 sq. ft. $194
2018-04-18 Single Family Cape 27 Meadow Spring Drive Sandwich, MA 02537 $549,000 2,154 sq. ft. 32,670 sq. ft. $255
2018-04-18 Single Family Colonial 2 Yacht Lane Sandwich, MA 02644 $565,000 2,740 sq. ft. 40,075 sq. ft. $206
2018-04-18 Single Family Colonial 12 Oak Hill Sandwich, MA 02537 $569,900 2,654 sq. ft. 43,124 sq. ft. $215
2018-04-18 Single Family Ranch 252 Phillips Road Sandwich, MA 02563 $499,000 1,280 sq. ft. 9,148 sq. ft. $390
2018-04-18 Single Family Cape 1 Sleepy Hollow Lane Sandwich, MA 02563 $549,500 2,508 sq. ft. 24,394 sq. ft. $219
2018-04-18 Single Family Contemporary 2 Telegraph Hill Road Sandwich, MA 02563 $549,900 2,935 sq. ft. 48,787 sq. ft. $187
2018-04-18 Single Family Cape 13 Bayview Road Sandwich, MA 02537 $549,900 2,212 sq. ft. 40,511 sq. ft. $249
2018-04-18 Single Family Colonial 51 Great Hills Drive Sandwich, MA 02537 $549,000 2,638 sq. ft. 23,958 sq. ft. $208
2018-04-18 Single Family Colonial 12 Grand Oak Road Sandwich, MA 02644 $489,000 2,786 sq. ft. 27,878 sq. ft. $176
2018-04-18 Single Family Cape 48 Knott Avenue Sandwich, MA 02563 $444,900 1,344 sq. ft. 12,197 sq. ft. $331
2018-04-18 Single Family Colonial 25 Bourne Hay Road Sandwich, MA 02563 $439,900 2,016 sq. ft. 19,602 sq. ft. $218
2018-04-18 Single Family Greek Revival 227 Old County Road Sandwich, MA 02537 $449,900 2,168 sq. ft. 152,896 sq. ft. $208
2018-04-18 Single Family Raised Ranch 24 Chipman Road Sandwich, MA 02563 $399,900 2,185 sq. ft. 15,682 sq. ft. $183
2018-04-18 Single Family Antique 2 River Street Sandwich, MA 02563 $369,000 1,530 sq. ft. 7,841 sq. ft. $241
2018-04-18 Single Family Ranch 18 Dexter Avenue Sandwich, MA 02563 $394,500 1,565 sq. ft. 30,928 sq. ft. $252
2018-04-18 Single Family Gambrel 4 Dana Road Sandwich, MA 02644 $367,000 2,140 sq. ft. 21,344 sq. ft. $172
2018-04-18 Single Family Saltbox 131 Knott Avenue Sandwich, MA 02563 $349,900 1,008 sq. ft. 5,227 sq. ft. $347
2018-04-18 Single Family Cape 9 Dexter Avenue Sandwich, MA 02563 $340,000 1,008 sq. ft. 6,534 sq. ft. $337
2018-04-18 Single Family Cape 8 Evsun Drive Sandwich, MA 02563 $329,000 1,092 sq. ft. 25,700 sq. ft. $301
2018-04-18 Single Family Ranch 5 Candlewood Drive Sandwich, MA 02563 $274,900 1,680 sq. ft. 23,522 sq. ft. $164
2018-04-18 Single Family Cape; Gambrel /Dutch 387 Lake Shore Drive Sandwich, MA 02563 $359,000 1,552 sq. ft. 20,473 sq. ft. $231
2018-04-17 Single Family Antique; Greek Revival 227 Old County Rd Sandwich, MA 02537 $449,900 2,168 sq. ft. 152,896 sq. ft. $208
2018-04-16 Single Family Cape 15 Lost Meadows Rd Sandwich, MA 02537 $1,153,000 3,987 sq. ft. 48,787 sq. ft. $289
2018-04-16 Single Family Gambrel /Dutch; Saltbox 28 Gully Lane Sandwich, MA 02537 $759,000 2,279 sq. ft. 320,166 sq. ft. $333
2018-04-15 Single Family Contemporary 3 Shaw Rd Sandwich, MA 02537 $629,000 2,702 sq. ft. 24,829 sq. ft. $233
2018-04-14 Single Family Contemporary 4 Open Trail Rd Sandwich, MA 02563 $815,000 3,538 sq. ft. 20,473 sq. ft. $230
2018-04-14 Single Family Contemporary 7 Sweet Fern Ln Sandwich, MA 02563 $849,000 4,600 sq. ft. 22,216 sq. ft. $185
2018-04-11 Single Family Ranch 252 Phillips Road Sandwich, MA 02563 $499,000 1,280 sq. ft. 9,148 sq. ft. $390
2018-04-10 Single Family Cape 48 Knott Avenue Sandwich, MA 02563 $444,900 1,344 sq. ft. 12,197 sq. ft. $331
2018-04-10 Single Family Contemporary; Ranch 22 Meadow Spring Sandwich, MA 02537 $599,000 2,794 sq. ft. 0 sq. ft. $214
2018-04-09 Single Family Colonial 6 Relection Sandwich, MA 02563 $789,000 3,047 sq. ft. 19,602 sq. ft. $259
2018-04-06 Single Family Ranch 253 Phillips Road Sandwich, MA 02563 $699,000 720 sq. ft. 18,295 sq. ft. $971
2018-04-04 Single Family Cape; Contemporary 4 Firethorn Lane Sandwich, MA 02563 $715,000 3,428 sq. ft. 16,988 sq. ft. $209
2018-04-03 Single Family Contemporary 2 Telegraph Hill Rd Sandwich, MA 02563 $549,900 2,935 sq. ft. 48,787 sq. ft. $187
2018-04-02 Single Family Contemporary; Shingle 33 Anchor Drive Sandwich, MA 02344 $399,945 2,377 sq. ft. 41,382 sq. ft. $168
2018-03-29 Single Family Colonial 19 Grove Sandwich, MA 02563 $749,000 1,392 sq. ft. 6,098 sq. ft. $538
2018-03-21 Single Family Colonial 51 Great Hills Road Sandwich, MA 02537 $549,000 2,638 sq. ft. 23,958 sq. ft. $208
2018-03-08 Single Family Saltbox 131 Knott Ave Sandwich, MA 02563 $349,900 1,008 sq. ft. 5,227 sq. ft. $347
2018-03-08 Single Family Contemporary 36 Open Space Dr Sandwich, MA 02563 $1,289,000 5,124 sq. ft. 61,420 sq. ft. $252
2018-03-06 Single Family Ranch 5 Candlewood Drive Sandwich, MA 02563 $274,900 1,680 sq. ft. 23,522 sq. ft. $164
2018-03-06 Single Family Ranch; Cottage 217 Phillips Road Sandwich, MA 02563 $949,000 1,300 sq. ft. 35,284 sq. ft. $730
2018-03-05 Single Family Colonial 129 North Shore Blvd Sandwich, MA 02537 $925,000 1,632 sq. ft. 0 sq. ft. $567
2018-03-05 Single Family Colonial 18 Morse Road Sandwich, MA 02563 $599,900 3,158 sq. ft. 50,094 sq. ft. $190
2018-02-23 Single Family Cape 1 Sleepy Hollow Lane Sandwich, MA 02563 $549,500 2,508 sq. ft. 0 sq. ft. $219
2018-02-22 Single Family Contemporary 103 Salt Marsh Road Sandwich, MA 02563 $970,000 1,536 sq. ft. 19,166 sq. ft. $632
2018-02-20 Single Family Ranch 26 Hilltop Dr Sandwich, MA 02561 $369,900 1,314 sq. ft. 25,265 sq. ft. $282
2018-02-17 Single Family Cape; Antique 22 Grove St Sandwich, MA 02563 $875,000 3,613 sq. ft. 24,394 sq. ft. $242
2018-02-08 Single Family Antique 7 Jarves St Sandwich, MA 02563 $774,900 3,300 sq. ft. 49,658 sq. ft. $235
2018-02-08 Single Family Greek Revival 7 Jarves Street Sandwich, MA 02563 $774,900 3,300 sq. ft. 49,658 sq. ft. $235
2018-02-03 Single Family Ranch 6 Raccoon Sandwich, MA 02644 $529,000 1,822 sq. ft. 51,401 sq. ft. $290
2018-02-03 Single Family Cape 8 Meadow Spring Dr Sandwich, MA 02537 $675,000 3,440 sq. ft. 89,298 sq. ft. $196
2018-02-02 Single Family Contemporary 101 Reflection Drive Sandwich, MA 02563 $534,900 2,350 sq. ft. 13,939 sq. ft. $228
2018-02-02 Single Family Cape 308 Phillips Rd Sandwich, MA 02563 $575,000 1,668 sq. ft. 12,197 sq. ft. $345
2018-02-01 Single Family Cape 308 Phillips Road Sandwich, MA 02563 $575,000 1,668 sq. ft. 12,197 sq. ft. $345
2018-02-01 Single Family Contemporary 10 Birchwood Lane Sandwich, MA 02563 $838,000 3,574 sq. ft. 17,860 sq. ft. $234
2018-02-01 Single Family Contemporary 10 Birchwood Ln Sandwich, MA 02563 $838,000 3,374 sq. ft. 17,860 sq. ft. $248
2018-02-01 Single Family 8 Meadow Spring Drive Sandwich, MA 02537 $675,000 3,440 sq. ft. 89,298 sq. ft. $196
2018-01-30 Single Family Cape 24 Foster Road Sandwich, MA 02563 $469,000 1,644 sq. ft. 46,609 sq. ft. $285
2018-01-28 Single Family Cape 24 Foster Rd Sandwich, MA 02537 $469,000 1,644 sq. ft. 46,609 sq. ft. $285
2018-01-26 Single Family Cape 10 Wintergreen Lane Sandwich, MA 02563 $1,100,000 6,418 sq. ft. 38,333 sq. ft. $171
2018-01-25 Single Family Gambrel 28 Marshview Circle Sandwich, MA 02537 $974,900 4,620 sq. ft. 25,265 sq. ft. $211
2018-01-24 Single Family Colonial 23 Ploughed Neck Sandwich, MA 02537 $689,900 2,921 sq. ft. 392,040 sq. ft. $236
2018-01-24 Single Family Colonial 23 Ploughed Neck Road Sandwich, MA 02537 $689,900 2,921 sq. ft. 392,040 sq. ft. $236
2018-01-18 Single Family Gambrel /Dutch 28 Marshview Cir Sandwich, MA 02537 $974,900 4,620 sq. ft. 25,265 sq. ft. $211
2018-01-10 Single Family Raised Ranch 56 North Shore Boulevard Sandwich, MA 02537 $444,900 1,008 sq. ft. 3,485 sq. ft. $441
2018-01-08 Single Family Greek Revival 204 Main Street Sandwich, MA 02563 $200,000 1,620 sq. ft. 24,394 sq. ft. $123
2017-12-15 Single Family Cape 439 Route 6a Sandwich, MA 02537 $465,900 2,669 sq. ft. 98,010 sq. ft. $175
2017-11-30 Single Family Ranch 42 Knott Avenue Sandwich, MA 02563 $389,900 816 sq. ft. 4,792 sq. ft. $478
2017-11-30 Single Family Ranch 42 Knott Avenue Sandwich, MA 02563 $389,900 816 sq. ft. 4,792 sq. ft. $478
2017-11-17 Single Family Colonial; Antique 71 Main St Sandwich, MA 02563 $525,000 3,113 sq. ft. 55,321 sq. ft. $169
2017-11-15 Single Family Antique 71 Main Street Sandwich, MA 02563 $525,000 3,113 sq. ft. 55,321 sq. ft. $169
2017-11-10 Single Family Colonial 60 Marshview Circle Sandwich, MA 02537 $749,900 3,200 sq. ft. 75,794 sq. ft. $234
2017-11-09 Single Family Cape; Antique 9 Georges Rock Rd Sandwich, MA 02563 $335,000 720 sq. ft. 3,485 sq. ft. $465
2017-11-09 Single Family Antique 9 Georges Rock Road Sandwich, MA 02563 $335,000 720 sq. ft. 3,485 sq. ft. $465
2017-11-06 Single Family Cape 16 Juniper Hill Road Sandwich, MA 02537 $539,000 1,773 sq. ft. 97,574 sq. ft. $304
2017-11-06 Single Family Cape 16 Juniper Hill Rd Sandwich, MA 02537 $539,000 1,773 sq. ft. 97,574 sq. ft. $304
2017-11-02 Single Family Post & Beam 4 Lookout Lane Sandwich, MA 02563 $1,249,000 3,542 sq. ft. 126,324 sq. ft. $353
2017-11-02 Single Family Cape 19 Captain Towne Road Sandwich, MA 02537 $899,900 4,068 sq. ft. 20,038 sq. ft. $221
2017-11-02 Single Family Cape 11 Seneca Lane Sandwich, MA 02563 $834,900 2,710 sq. ft. 30,928 sq. ft. $308
2017-11-02 Single Family Cape 5 Brewster Lane Sandwich, MA 02563 $799,900 2,584 sq. ft. 30,056 sq. ft. $310
2017-11-02 Single Family Cape 32 Stowe Road Sandwich, MA 02563 $699,900 3,688 sq. ft. 85,378 sq. ft. $190
2017-11-02 Single Family Cape 4 Sweet Fern Lane Sandwich, MA 02563 $674,900 3,493 sq. ft. 17,860 sq. ft. $193
2017-11-02 Single Family Bungalow 93 Salt Marsh Road Sandwich, MA 02537 $649,000 600 sq. ft. 17,860 sq. ft. $1,082
2017-11-02 Single Family Colonial 355 Phillips Road Sandwich, MA 02563 $485,000 1,112 sq. ft. 4,792 sq. ft. $436
2017-11-02 Single Family Cape 18 Highfield Drive Sandwich, MA 02563 $499,000 2,800 sq. ft. 23,087 sq. ft. $178
2017-11-02 Single Family Cape 1 Dexter Avenue Sandwich, MA 02563 $359,900 1,100 sq. ft. 9,583 sq. ft. $327
2017-11-02 Single Family Antique 7 State Street Sandwich, MA 02563 $344,900 1,502 sq. ft. 3,485 sq. ft. $230
2017-10-30 Single Family Contemporary 34 Goose Point Ln Sandwich, MA 02537 $1,595,000 4,640 sq. ft. 40,075 sq. ft. $344
2017-10-12 Single Family Colonial 355 Phillips Road Sandwich, MA 02563 $485,000 1,112 sq. ft. 4,792 sq. ft. $436
2017-09-18 Single Family Colonial; Antique 7 State St Sandwich, MA 02563 $344,900 1,502 sq. ft. 3,485 sq. ft. $230
2017-08-23 Single Family Cape; Contemporary 4 Sweet Fern Ln Sandwich, MA 02563 $674,900 3,493 sq. ft. 740,520 sq. ft. $193
2017-08-23 Single Family Cape 5 Brewster Ln Sandwich, MA 02537 $799,900 2,584 sq. ft. 1,306,800 sq. ft. $310
2017-08-14 Single Family Cape; Gambrel /Dutch 11 Seneca Ln Sandwich, MA 02563 $834,900 2,710 sq. ft. 30,928 sq. ft. $308
2017-08-14 Single Family Colonial 4 Lookout Lane Sandwich, MA 02563 $1,249,000 3,542 sq. ft. 126,324 sq. ft. $353
2017-08-07 Single Family Cape 5 Paradise Farm Lane Sandwich, MA 02644 $119,900 1,489 sq. ft. 32,670 sq. ft. $81
2017-07-31 Single Family Cape 12 Shaw Rd Sandwich, MA 02537 $649,000 2,404 sq. ft. 39,640 sq. ft. $270
2017-07-31 Single Family Cape 12 Shaw Street Sandwich, MA 02537 $649,000 2,404 sq. ft. 39,640 sq. ft. $270
2017-07-27 Single Family Contemporary; Shingle 11 Foxcroft Lane Sandwich, MA 02537 $3,400,000 5,216 sq. ft. 65,340 sq. ft. $652
2017-07-26 Single Family Contemporary 350 Quaker Meetinghouse Road Sandwich, MA 02537 $1,350,000 6,500 sq. ft. 69,260 sq. ft. $208
2017-07-21 Single Family Contemporary 11 Foxcroft Lane Sandwich, MA 02537 $3,400,000 5,216 sq. ft. 65,340 sq. ft. $652
2017-07-09 Single Family Colonial 14 Seneca Ln Sandwich, MA 02563 $779,900 2,811 sq. ft. 28,750 sq. ft. $277
2017-07-07 Single Family Colonial 14 Seneca Lane Sandwich, MA 02563 $779,900 2,851 sq. ft. 28,750 sq. ft. $274
2017-06-30 Single Family Saltbox Sandwich, MA 02537 $479,000 2,226 sq. ft. 22,651 sq. ft. $215
2017-06-30 Single Family Colonial; Craftsman 9 Quail Run Lane Sandwich, MA 02537 $479,000 2,226 sq. ft. 23,522 sq. ft. $215
2017-06-22 Single Family Colonial; Contemporary; Multi-Level; Colonial Revival; Other (See Remarks) 350 Quaker Meetinghouse Rd Sandwich, MA 02537 $1,350,000 6,500 sq. ft. 65,776 sq. ft. $208
2017-05-31 Single Family Colonial 10 Grove Street Sandwich, MA 02563 $729,000 3,346 sq. ft. 45,302 sq. ft. $218
2017-05-31 Single Family Colonial; Antique 10 Grove St Sandwich, MA 02563 $729,000 3,346 sq. ft. 40,946 sq. ft. $218
2017-04-24 Single Family Contemporary 14 Beach Way Sandwich, MA 02537 $2,600,000 3,771 sq. ft. 74,923 sq. ft. $689
2017-04-24 Single Family Contemporary 14 Beach Way Sandwich, MA 02537 $2,600,000 3,771 sq. ft. 74,923 sq. ft. $689
2017-04-19 Single Family Contemporary 25 Weeks Pond Sandwich, MA 02644 $352,500 1,878 sq. ft. 19,602 sq. ft. $188
2017-02-10 Single Family Ranch 19 Jones Lane Sandwich, MA 02537 $174,900 1,344 sq. ft. 27,007 sq. ft. $130
2017-01-30 Single Family Cape 45 Freeman Ave Sandwich, MA 02563 $995,000 2,608 sq. ft. 16,117 sq. ft. $382
2017-01-30 Single Family Cape 45 Freeman Avenue Sandwich, MA 02563 $995,000 2,608 sq. ft. 16,117 sq. ft. $382
2016-10-27 Single Family Raised Ranch 12 Pheasant Lane Sandwich, MA 02563 $349,900 1,188 sq. ft. 23,087 sq. ft. $295
2016-10-02 Single Family Bungalow 16 Salt Marsh Road Sandwich, MA 02537 $625,000 1,100 sq. ft. 17,424 sq. ft. $568
2016-10-01 Single Family Cottage 16 Salt Marsh Sandwich, MA 02537 $625,000 1,100 sq. ft. 17,424 sq. ft. $568
2016-07-07 Single Family Cape 1 Dexter Ave Sandwich, MA 02563 $359,900 1,100 sq. ft. 9,583 sq. ft. $327
2016-05-12 Single Family Colonial 97 Cranberry Trail Sandwich, MA 02537 $2,375,000 1,456 sq. ft. 74,052 sq. ft. $1,631
2016-04-10 Single Family Contemporary 143 Main Street Sandwich, MA 02563 $1,200,000 7,270 sq. ft. 7,841 sq. ft. $165
2015-03-30 Single Family Colonial 97 Cranberry Trl Sandwich, MA 02537 $2,375,500 1,456 sq. ft. 74,052 sq. ft. $1,632